KPSM/PSM METAR and TAF weather

Enter ICAO airport designator
Station Type Date Time Source
KPSM METAR 2021/09/23 22:56 UTC NOAA

KPSM 232256Z 13010KT 10SM BKN070 21/18 A3010 RMK AO2A SLP195 T02070184


Station Type Date Time Source
KPSM Decoded METAR 2021/09/23 22:56 UTC NOAA

Pease Air Force Base / Portsmouth, NH, United States (KPSM) 43-05N 070-49W
Sep 23, 2021 - 06:56 PM EDT / 2021.09.23 2256 UTC
Wind: from the SE (130 degrees) at 12 MPH (10 KT):0
Visibility: 10 mile(s):0
Sky conditions: mostly cloudy
Temperature: 69.3 F (20.7 C)
Dew Point: 65.1 F (18.4 C)
Relative Humidity: 86%
Pressure (altimeter): 30.1 in. Hg (1019 hPa)
ob: KPSM 232256Z 13010KT 10SM BKN070 21/18 A3010 RMK AO2A SLP195 T02070184
cycle: 23

Station Type Date Time Source
KPSM TAF 2021/09/23 18:40 UTC NOAA

TAF
AMD KPSM 231738Z 2318/2418 14014KT P6SM BKN045
FM240300 13008KT 2SM BR VCSH BKN010
FM240800 13008KT 2SM BR VCSH BKN002
FM241400 15011G18KT 5SM -SHRA BKN005

Example: see airport list